Lehighton, Pennsylvania
Current Conditions -  °F | °C
As of 9:55 PM on Monday 22 Dec 2014 (Local Time) from KHZL Reporting Station
Haze Haze  
Wind Chill: 32°   Ceiling: 200
Heat Index: 36°   Visibility: 4mi
Dew Point: 36°   Wind: 5mph
Humidity: 100%   Direction: 110°ESE
Pressure: 30.13"   Gusts: NA
Location:  40.83°N, 75.71°W
Report Text: KHZL 230255Z AUTO 11004KT 4SM BR OVC002 02/02 A3013 RMK AO2
Loading
Personal Weather Stations






























Interactive Weather Map New forecast layout! Learn more

10-Day Weather Forecast

Advertisements
Track Severe Weather on mobile